sensor_id;sensor_type;location;lat;lon;timestamp;P1;durP1;ratioP1;P2;durP2;ratioP2
47513;SDS011;33951;51.988;5.910;2023-07-29T04:01:12;17.13;;;10.75;;
47513;SDS011;33951;51.988;5.910;2023-07-29T04:03:38;12.48;;;10.23;;
47513;SDS011;33951;51.988;5.910;2023-07-29T04:06:04;13.38;;;10.07;;
47513;SDS011;33951;51.988;5.910;2023-07-29T04:08:30;12.05;;;9.38;;
47513;SDS011;33951;51.988;5.910;2023-07-29T04:10:55;10.88;;;8.05;;
47513;SDS011;33951;51.988;5.910;2023-07-29T04:13:21;13.90;;;9.32;;
47513;SDS011;33951;51.988;5.910;2023-07-29T04:15:47;10.60;;;8.55;;
47513;SDS011;33951;51.988;5.910;2023-07-29T04:18:13;10.18;;;8.82;;
47513;SDS011;33951;51.988;5.910;2023-07-29T04:20:41;12.35;;;7.55;;
47513;SDS011;33951;51.988;5.910;2023-07-29T04:23:07;9.13;;;7.10;;
47513;SDS011;33951;51.988;5.910;2023-07-29T04:25:32;11.93;;;7.68;;
47513;SDS011;33951;51.988;5.910;2023-07-29T04:27:58;11.38;;;7.03;;
47513;SDS011;33951;51.988;5.910;2023-07-29T04:30:24;9.13;;;6.55;;
47513;SDS011;33951;51.988;5.910;2023-07-29T04:32:52;8.45;;;7.45;;
47513;SDS011;33951;51.988;5.910;2023-07-29T04:35:26;11.75;;;7.95;;
47513;SDS011;33951;51.988;5.910;2023-07-29T04:37:52;9.27;;;6.55;;
47513;SDS011;33951;51.988;5.910;2023-07-29T04:40:20;8.73;;;6.57;;
47513;SDS011;33951;51.988;5.910;2023-07-29T04:42:47;9.50;;;6.05;;
47513;SDS011;33951;51.988;5.910;2023-07-29T04:45:13;11.02;;;6.45;;
47513;SDS011;33951;51.988;5.910;2023-07-29T04:47:41;9.60;;;5.95;;
47513;SDS011;33951;51.988;5.910;2023-07-29T04:50:07;11.13;;;5.90;;
47513;SDS011;33951;51.988;5.910;2023-07-29T04:52:33;6.80;;;5.45;;
47513;SDS011;33951;51.988;5.910;2023-07-29T04:54:59;9.30;;;5.57;;
47513;SDS011;33951;51.988;5.910;2023-07-29T04:57:27;8.57;;;5.50;;
47513;SDS011;33951;51.988;5.910;2023-07-29T04:59:56;6.80;;;5.30;;
47513;SDS011;33951;51.988;5.910;2023-07-29T05:02:24;7.45;;;5.80;;
47513;SDS011;33951;51.988;5.910;2023-07-29T05:04:52;7.25;;;5.78;;
47513;SDS011;33951;51.988;5.910;2023-07-29T05:07:18;6.80;;;4.68;;
47513;SDS011;33951;51.988;5.910;2023-07-29T05:09:44;4.90;;;4.30;;
47513;SDS011;33951;51.988;5.910;2023-07-29T05:12:09;5.95;;;4.88;;
47513;SDS011;33951;51.988;5.910;2023-07-29T05:14:35;8.52;;;4.13;;
47513;SDS011;33951;51.988;5.910;2023-07-29T05:17:01;9.18;;;4.20;;
47513;SDS011;33951;51.988;5.910;2023-07-29T05:19:27;6.18;;;4.60;;
47513;SDS011;33951;51.988;5.910;2023-07-29T05:21:52;5.70;;;4.40;;
47513;SDS011;33951;51.988;5.910;2023-07-29T05:24:18;5.68;;;4.22;;
47513;SDS011;33951;51.988;5.910;2023-07-29T05:26:47;6.22;;;4.20;;
47513;SDS011;33951;51.988;5.910;2023-07-29T05:29:13;6.47;;;4.18;;
47513;SDS011;33951;51.988;5.910;2023-07-29T05:31:39;5.57;;;4.30;;
47513;SDS011;33951;51.988;5.910;2023-07-29T05:34:05;7.32;;;4.55;;
47513;SDS011;33951;51.988;5.910;2023-07-29T05:36:31;7.60;;;4.68;;
47513;SDS011;33951;51.988;5.910;2023-07-29T05:38:56;7.45;;;4.68;;
47513;SDS011;33951;51.988;5.910;2023-07-29T05:41:22;7.07;;;4.25;;
47513;SDS011;33951;51.988;5.910;2023-07-29T05:43:53;8.02;;;5.20;;
47513;SDS011;33951;51.988;5.910;2023-07-29T05:46:18;9.57;;;5.00;;
47513;SDS011;33951;51.988;5.910;2023-07-29T05:49:03;7.43;;;5.72;;
47513;SDS011;33951;51.988;5.910;2023-07-29T05:51:29;8.40;;;5.10;;
47513;SDS011;33951;51.988;5.910;2023-07-29T05:53:55;7.95;;;5.70;;
47513;SDS011;33951;51.988;5.910;2023-07-29T05:56:20;7.97;;;5.72;;
47513;SDS011;33951;51.988;5.910;2023-07-29T05:58:46;8.43;;;5.07;;
47513;SDS011;33951;51.988;5.910;2023-07-29T06:01:12;10.38;;;6.30;;
47513;SDS011;33951;51.988;5.910;2023-07-29T06:03:40;7.10;;;5.40;;
47513;SDS011;33951;51.988;5.910;2023-07-29T06:06:06;6.88;;;5.50;;
47513;SDS011;33951;51.988;5.910;2023-07-29T06:08:32;9.77;;;6.82;;
47513;SDS011;33951;51.988;5.910;2023-07-29T06:11:02;9.05;;;5.65;;
47513;SDS011;33951;51.988;5.910;2023-07-29T06:13:28;6.80;;;5.75;;
47513;SDS011;33951;51.988;5.910;2023-07-29T06:15:59;8.95;;;5.55;;
47513;SDS011;33951;51.988;5.910;2023-07-29T06:18:27;13.73;;;6.75;;
47513;SDS011;33951;51.988;5.910;2023-07-29T06:20:53;21.08;;;6.55;;
47513;SDS011;33951;51.988;5.910;2023-07-29T06:23:19;11.38;;;8.15;;
47513;SDS011;33951;51.988;5.910;2023-07-29T06:25:49;9.05;;;6.38;;
47513;SDS011;33951;51.988;5.910;2023-07-29T06:28:18;9.68;;;6.30;;
47513;SDS011;33951;51.988;5.910;2023-07-29T06:30:46;8.98;;;6.72;;
47513;SDS011;33951;51.988;5.910;2023-07-29T06:33:12;7.95;;;6.40;;
47513;SDS011;33951;51.988;5.910;2023-07-29T06:35:41;10.82;;;6.75;;
47513;SDS011;33951;51.988;5.910;2023-07-29T06:38:10;11.75;;;6.90;;
47513;SDS011;33951;51.988;5.910;2023-07-29T06:40:36;9.15;;;6.90;;
47513;SDS011;33951;51.988;5.910;2023-07-29T06:43:04;9.93;;;6.97;;
47513;SDS011;33951;51.988;5.910;2023-07-29T06:45:30;11.40;;;6.50;;
47513;SDS011;33951;51.988;5.910;2023-07-29T06:48:01;8.57;;;6.72;;
47513;SDS011;33951;51.988;5.910;2023-07-29T06:53:31;8.43;;;7.03;;
47513;SDS011;33951;51.988;5.910;2023-07-29T07:20:47;10.10;;;7.63;;
47513;SDS011;33951;51.988;5.910;2023-07-29T09:12:19;6.80;;;3.70;;
47513;SDS011;33951;51.988;5.910;2023-07-29T11:31:57;4.60;;;2.95;;
47513;SDS011;33951;51.988;5.910;2023-07-29T11:41:34;3.83;;;2.83;;
47513;SDS011;33951;51.988;5.910;2023-07-29T11:44:46;4.70;;;2.60;;
47513;SDS011;33951;51.988;5.910;2023-07-29T12:02:00;5.45;;;2.92;;
47513;SDS011;33951;51.988;5.910;2023-07-29T12:08:29;5.03;;;2.38;;
47513;SDS011;33951;51.988;5.910;2023-07-29T12:11:00;4.55;;;3.15;;
47513;SDS011;33951;51.988;5.910;2023-07-29T12:13:46;4.78;;;3.25;;
47513;SDS011;33951;51.988;5.910;2023-07-29T12:16:21;4.63;;;3.20;;
47513;SDS011;33951;51.988;5.910;2023-07-29T12:19:00;7.68;;;3.03;;
47513;SDS011;33951;51.988;5.910;2023-07-29T12:21:32;6.32;;;3.53;;
47513;SDS011;33951;51.988;5.910;2023-07-29T12:24:07;7.03;;;3.35;;
47513;SDS011;33951;51.988;5.910;2023-07-29T12:29:21;5.88;;;3.30;;
47513;SDS011;33951;51.988;5.910;2023-07-29T12:35:54;3.50;;;3.17;;
47513;SDS011;33951;51.988;5.910;2023-07-29T13:17:03;2.60;;;2.40;;
47513;SDS011;33951;51.988;5.910;2023-07-29T14:09:40;4.53;;;3.22;;
47513;SDS011;33951;51.988;5.910;2023-07-29T14:19:14;8.15;;;3.92;;
47513;SDS011;33951;51.988;5.910;2023-07-29T14:25:28;4.57;;;4.13;;
47513;SDS011;33951;51.988;5.910;2023-07-29T14:27:54;4.07;;;3.00;;
47513;SDS011;33951;51.988;5.910;2023-07-29T14:37:03;4.30;;;3.00;;
47513;SDS011;33951;51.988;5.910;2023-07-29T14:46:28;4.03;;;2.43;;
47513;SDS011;33951;51.988;5.910;2023-07-29T14:48:57;3.20;;;2.90;;
47513;SDS011;33951;51.988;5.910;2023-07-29T14:51:25;2.90;;;2.42;;
47513;SDS011;33951;51.988;5.910;2023-07-29T14:54:14;3.20;;;2.90;;
47513;SDS011;33951;51.988;5.910;2023-07-29T15:03:25;3.80;;;2.53;;
47513;SDS011;33951;51.988;5.910;2023-07-29T15:06:02;6.25;;;5.65;;
47513;SDS011;33951;51.988;5.910;2023-07-29T15:09:17;2.75;;;2.55;;
47513;SDS011;33951;51.988;5.910;2023-07-29T15:11:43;4.13;;;3.25;;
47513;SDS011;33951;51.988;5.910;2023-07-29T15:24:48;3.33;;;3.03;;
47513;SDS011;33951;51.988;5.910;2023-07-29T15:27:48;5.80;;;5.22;;
47513;SDS011;33951;51.988;5.910;2023-07-29T15:33:36;5.55;;;3.28;;
47513;SDS011;33951;51.988;5.910;2023-07-29T15:36:17;3.30;;;2.72;;
47513;SDS011;33951;51.988;5.910;2023-07-29T15:41:37;5.18;;;2.65;;
47513;SDS011;33951;51.988;5.910;2023-07-29T15:44:44;3.83;;;3.10;;
47513;SDS011;33951;51.988;5.910;2023-07-29T15:50:33;3.70;;;2.88;;
47513;SDS011;33951;51.988;5.910;2023-07-29T15:53:04;4.22;;;3.13;;
47513;SDS011;33951;51.988;5.910;2023-07-29T15:55:38;10.65;;;8.82;;
47513;SDS011;33951;51.988;5.910;2023-07-29T15:58:16;5.65;;;5.05;;
47513;SDS011;33951;51.988;5.910;2023-07-29T16:01:08;3.25;;;2.60;;
47513;SDS011;33951;51.988;5.910;2023-07-29T16:39:15;8.95;;;4.72;;
47513;SDS011;33951;51.988;5.910;2023-07-29T16:41:40;7.15;;;4.72;;
47513;SDS011;33951;51.988;5.910;2023-07-29T16:44:06;7.03;;;4.78;;
47513;SDS011;33951;51.988;5.910;2023-07-29T16:46:37;6.88;;;5.57;;
47513;SDS011;33951;51.988;5.910;2023-07-29T16:49:30;11.48;;;6.13;;
47513;SDS011;33951;51.988;5.910;2023-07-29T16:52:02;6.57;;;5.90;;
47513;SDS011;33951;51.988;5.910;2023-07-29T16:55:00;9.10;;;6.00;;
47513;SDS011;33951;51.988;5.910;2023-07-29T16:57:35;7.65;;;6.85;;
47513;SDS011;33951;51.988;5.910;2023-07-29T17:00:10;7.82;;;6.30;;
47513;SDS011;33951;51.988;5.910;2023-07-29T17:02:56;11.73;;;8.43;;
47513;SDS011;33951;51.988;5.910;2023-07-29T17:05:39;7.30;;;5.93;;
47513;SDS011;33951;51.988;5.910;2023-07-29T17:08:31;6.32;;;5.40;;
47513;SDS011;33951;51.988;5.910;2023-07-29T17:11:12;6.45;;;5.55;;
47513;SDS011;33951;51.988;5.910;2023-07-29T17:14:23;5.47;;;4.97;;
47513;SDS011;33951;51.988;5.910;2023-07-29T17:17:25;6.65;;;5.18;;
47513;SDS011;33951;51.988;5.910;2023-07-29T17:33:17;5.93;;;4.35;;
47513;SDS011;33951;51.988;5.910;2023-07-29T17:50:11;4.25;;;3.90;;
47513;SDS011;33951;51.988;5.910;2023-07-29T17:53:32;12.05;;;8.20;;
47513;SDS011;33951;51.988;5.910;2023-07-29T19:31:42;8.30;;;4.80;;
47513;SDS011;33951;51.988;5.910;2023-07-29T19:41:32;9.75;;;4.03;;
47513;SDS011;33951;51.988;5.910;2023-07-29T20:04:07;12.48;;;3.65;;
47513;SDS011;33951;51.988;5.910;2023-07-29T20:09:50;13.77;;;4.88;;
47513;SDS011;33951;51.988;5.910;2023-07-29T20:12:24;10.50;;;4.03;;
47513;SDS011;33951;51.988;5.910;2023-07-29T20:15:26;9.95;;;4.20;;
47513;SDS011;33951;51.988;5.910;2023-07-29T20:22:02;14.63;;;4.50;;
47513;SDS011;33951;51.988;5.910;2023-07-29T21:31:13;13.70;;;4.72;;
